Time;durP1;ratioP1;P1;durP2;ratioP2;P2;SDS_P1;SDS_P2;PMS_P1;PMS_P2;Temp;Humidity;BMP_temperature;BMP_pressure;BME280_temperature;BME280_humidity;BME280_pressure;Samples;Min_cycle;Max_cycle;Signal;HPM_P1;HPM_P2
2022/12/19 00:02:20;;;;;;;9.40;2.50;;;;;;;;;;106724;1306;22096;-77
2022/12/19 00:04:47;;;;;;;10.90;2.60;;;;;;;;;;106773;1300;22052;-77
2022/12/19 00:07:14;;;;;;;10.80;2.80;;;;;;;;;;106800;1294;22080;-77
2022/12/19 00:09:40;;;;;;;10.70;3.50;;;;;;;;;;106950;1306;22044;-77
2022/12/19 00:12:07;;;;;;;12.10;3.90;;;;;;;;;;106703;1307;21879;-77
2022/12/19 00:14:37;;;;;;;16.90;3.70;;;;;;;;;;106766;1309;22061;-77
2022/12/19 00:17:03;;;;;;;14.70;4.10;;;;;;;;;;106773;1306;22125;-78
2022/12/19 00:19:30;;;;;;;20.50;5.70;;;;;;;;;;106906;1305;22800;-78
2022/12/19 00:21:57;;;;;;;31.00;8.50;;;;;;;;;;106866;1305;22125;-77
2022/12/19 00:24:23;;;;;;;31.50;8.40;;;;;;;;;;106953;1306;22155;-77
2022/12/19 00:26:50;;;;;;;27.70;7.40;;;;;;;;;;106788;1307;22082;-78
2022/12/19 00:29:17;;;;;;;25.90;8.40;;;;;;;;;;106728;1306;22154;-77
2022/12/19 00:31:44;;;;;;;38.40;10.80;;;;;;;;;;106937;1311;22371;-78
2022/12/19 00:34:11;;;;;;;46.50;11.50;;;;;;;;;;106755;1310;22546;-77
2022/12/19 00:36:39;;;;;;;35.50;10.20;;;;;;;;;;106785;1310;21862;-77
2022/12/19 00:39:07;;;;;;;34.30;9.70;;;;;;;;;;106908;1308;22743;-77
2022/12/19 00:41:34;;;;;;;32.90;10.40;;;;;;;;;;106891;1306;22052;-77
2022/12/19 00:44:02;;;;;;;27.70;10.20;;;;;;;;;;106778;1307;22915;-77
2022/12/19 00:46:31;;;;;;;27.40;8.90;;;;;;;;;;106777;1307;22052;-77
2022/12/19 00:48:58;;;;;;;29.30;8.70;;;;;;;;;;106728;1308;22079;-77
2022/12/19 00:51:27;;;;;;;28.10;8.90;;;;;;;;;;106791;1290;22659;-77
2022/12/19 00:53:55;;;;;;;31.30;9.70;;;;;;;;;;106744;1308;22112;-78
2022/12/19 00:56:23;;;;;;;29.80;10.30;;;;;;;;;;106894;1308;22095;-77
2022/12/19 00:58:50;;;;;;;27.30;9.00;;;;;;;;;;106880;1302;22164;-77
2022/12/19 01:01:18;;;;;;;26.40;7.80;;;;;;;;;;106738;1308;22467;-77
2022/12/19 01:03:46;;;;;;;20.60;7.20;;;;;;;;;;106697;1309;22072;-77
2022/12/19 01:06:13;;;;;;;22.70;6.90;;;;;;;;;;106751;1300;22059;-77
2022/12/19 01:08:40;;;;;;;22.40;6.40;;;;;;;;;;106760;1307;22721;-77
2022/12/19 01:11:07;;;;;;;18.90;6.00;;;;;;;;;;106754;1306;22060;-77
2022/12/19 01:13:36;;;;;;;17.80;5.80;;;;;;;;;;106769;1305;22078;-77
2022/12/19 01:16:04;;;;;;;15.20;4.60;;;;;;;;;;106756;1310;21987;-77
2022/12/19 01:18:31;;;;;;;16.30;4.90;;;;;;;;;;106719;1307;22109;-77
2022/12/19 01:21:00;;;;;;;16.70;4.40;;;;;;;;;;106877;1307;22213;-77
2022/12/19 01:23:27;;;;;;;15.00;5.50;;;;;;;;;;106701;1306;21923;-77
2022/12/19 01:25:54;;;;;;;18.40;5.80;;;;;;;;;;106704;1306;22128;-77
2022/12/19 01:28:22;;;;;;;18.50;6.00;;;;;;;;;;106771;1306;22094;-77
2022/12/19 01:30:49;;;;;;;17.10;5.80;;;;;;;;;;106672;1306;22133;-77
2022/12/19 01:33:17;;;;;;;15.30;4.90;;;;;;;;;;106768;1307;22849;-77
2022/12/19 01:35:44;;;;;;;13.10;3.80;;;;;;;;;;106861;1307;22088;-77
2022/12/19 01:38:15;;;;;;;14.20;4.10;;;;;;;;;;106778;1307;22722;-83
2022/12/19 01:40:53;;;;;;;11.90;3.60;;;;;;;;;;106744;1306;22118;-77
2022/12/19 01:43:21;;;;;;;12.40;3.60;;;;;;;;;;106692;1306;22261;-77
2022/12/19 01:45:53;;;;;;;11.70;3.60;;;;;;;;;;106698;1306;22096;-77
2022/12/19 01:48:34;;;;;;;12.40;3.70;;;;;;;;;;106775;1306;22166;-77
2022/12/19 01:51:18;;;;;;;11.60;3.70;;;;;;;;;;106690;1306;22069;-77
2022/12/19 01:53:48;;;;;;;16.50;4.90;;;;;;;;;;106744;1301;23174;-77
2022/12/19 01:56:16;;;;;;;14.60;5.10;;;;;;;;;;106854;1306;22071;-79
2022/12/19 01:58:46;;;;;;;13.60;4.30;;;;;;;;;;106779;1307;22072;-77
2022/12/19 02:01:14;;;;;;;16.40;6.90;;;;;;;;;;106703;1307;22874;-78
2022/12/19 02:03:41;;;;;;;13.10;4.30;;;;;;;;;;106885;1306;22105;-77
2022/12/19 02:06:11;;;;;;;12.90;4.30;;;;;;;;;;106644;1309;22099;-77
2022/12/19 02:08:38;;;;;;;11.60;3.60;;;;;;;;;;106742;1309;22325;-77
2022/12/19 02:11:05;;;;;;;12.10;3.70;;;;;;;;;;106939;1299;22052;-78
2022/12/19 02:13:32;;;;;;;14.30;3.80;;;;;;;;;;106659;1308;22066;-78
2022/12/19 02:16:28;;;;;;;11.10;3.10;;;;;;;;;;106687;1309;22058;-77
2022/12/19 02:19:03;;;;;;;11.30;3.50;;;;;;;;;;106235;1314;22171;-77
2022/12/19 02:21:34;;;;;;;11.80;3.90;;;;;;;;;;106106;1313;22161;-78
2022/12/19 02:24:04;;;;;;;11.10;3.30;;;;;;;;;;106169;1309;22365;-80
2022/12/19 02:26:43;;;;;;;12.30;4.00;;;;;;;;;;106493;1302;22301;-77
2022/12/19 02:29:23;;;;;;;13.00;4.00;;;;;;;;;;106533;1312;22125;-78
2022/12/19 02:32:00;;;;;;;12.50;4.00;;;;;;;;;;106508;1313;22330;-78
2022/12/19 02:35:02;;;;;;;13.60;4.00;;;;;;;;;;106507;1305;22159;-77
2022/12/19 02:37:31;;;;;;;14.50;4.00;;;;;;;;;;105806;1319;22119;-77
2022/12/19 02:40:16;;;;;;;12.40;3.90;;;;;;;;;;105639;1319;22122;-77
2022/12/19 02:42:45;;;;;;;12.40;4.30;;;;;;;;;;105584;1318;22122;-78
2022/12/19 02:45:13;;;;;;;11.20;4.00;;;;;;;;;;105649;1312;22107;-78
2022/12/19 02:47:41;;;;;;;12.10;3.40;;;;;;;;;;105659;1318;22122;-78
2022/12/19 02:50:10;;;;;;;11.20;3.70;;;;;;;;;;105566;1318;22116;-78
2022/12/19 02:52:37;;;;;;;14.60;4.40;;;;;;;;;;105871;1318;22141;-80
2022/12/19 02:55:10;;;;;;;11.90;4.20;;;;;;;;;;105742;1313;22165;-77
2022/12/19 02:57:42;;;;;;;13.60;4.30;;;;;;;;;;106600;1308;22117;-78
2022/12/19 03:00:17;;;;;;;12.10;3.80;;;;;;;;;;106243;1309;22112;-78
2022/12/19 03:02:54;;;;;;;15.90;4.60;;;;;;;;;;106042;1313;22740;-78
2022/12/19 03:05:43;;;;;;;13.10;4.50;;;;;;;;;;106259;1302;22770;-77
2022/12/19 03:08:18;;;;;;;15.30;5.00;;;;;;;;;;106242;1314;22113;-79
2022/12/19 03:10:52;;;;;;;16.10;4.10;;;;;;;;;;106060;1312;22316;-77
2022/12/19 03:13:18;;;;;;;14.40;4.90;;;;;;;;;;106704;1307;22081;-79
2022/12/19 03:15:50;;;;;;;15.50;5.30;;;;;;;;;;106621;1309;22079;-77
2022/12/19 03:18:16;;;;;;;12.70;4.70;;;;;;;;;;106625;1309;22127;-79
2022/12/19 03:20:48;;;;;;;13.40;4.50;;;;;;;;;;106711;1302;22117;-79
2022/12/19 03:23:16;;;;;;;16.00;5.20;;;;;;;;;;106913;1302;22096;-79
2022/12/19 03:25:46;;;;;;;17.20;6.00;;;;;;;;;;106719;1307;22710;-81
2022/12/19 03:28:18;;;;;;;16.10;6.00;;;;;;;;;;106721;1306;21962;-78
2022/12/19 03:30:45;;;;;;;14.40;5.20;;;;;;;;;;106742;1307;22077;-79
2022/12/19 03:33:12;;;;;;;15.90;5.70;;;;;;;;;;106917;1302;22806;-79
2022/12/19 03:35:40;;;;;;;17.20;5.80;;;;;;;;;;106901;1307;22122;-79
2022/12/19 03:38:08;;;;;;;15.80;5.60;;;;;;;;;;106622;1307;22077;-79
2022/12/19 03:40:36;;;;;;;16.10;5.60;;;;;;;;;;106878;1307;22064;-78
2022/12/19 03:43:08;;;;;;;15.10;5.40;;;;;;;;;;106704;1308;22654;-80
2022/12/19 03:45:48;;;;;;;15.30;5.40;;;;;;;;;;106606;1307;22093;-80
2022/12/19 03:48:22;;;;;;;17.50;5.40;;;;;;;;;;106738;1309;22107;-80
2022/12/19 03:50:53;;;;;;;16.70;5.70;;;;;;;;;;106651;1308;22085;-79
2022/12/19 03:53:26;;;;;;;16.90;5.50;;;;;;;;;;106703;1308;22119;-78
2022/12/19 03:55:57;;;;;;;15.10;5.10;;;;;;;;;;106611;1307;22129;-81
2022/12/19 03:58:30;;;;;;;15.30;5.30;;;;;;;;;;106619;1310;22054;-79
2022/12/19 04:00:59;;;;;;;19.40;5.70;;;;;;;;;;106903;1307;22801;-78
2022/12/19 04:03:27;;;;;;;15.80;6.00;;;;;;;;;;106731;1310;22076;-79
2022/12/19 04:05:55;;;;;;;13.90;5.20;;;;;;;;;;106882;1307;23031;-77
2022/12/19 04:08:23;;;;;;;17.30;5.90;;;;;;;;;;106644;1308;22096;-79
2022/12/19 04:10:53;;;;;;;15.70;5.30;;;;;;;;;;106614;1309;22803;-77
2022/12/19 04:13:36;;;;;;;15.30;5.20;;;;;;;;;;106650;1309;22081;-80
2022/12/19 04:16:07;;;;;;;15.20;5.10;;;;;;;;;;106809;1300;22252;-78
2022/12/19 04:18:34;;;;;;;13.90;5.30;;;;;;;;;;106673;1309;22080;-78
2022/12/19 04:21:04;;;;;;;18.30;5.50;;;;;;;;;;106590;1308;21986;-76
2022/12/19 04:23:33;;;;;;;17.80;5.70;;;;;;;;;;106627;1309;22048;-76
2022/12/19 04:26:02;;;;;;;15.80;5.40;;;;;;;;;;106664;1309;22100;-76
2022/12/19 04:28:38;;;;;;;18.60;5.50;;;;;;;;;;106849;1307;22060;-77
2022/12/19 04:31:05;;;;;;;15.40;5.70;;;;;;;;;;106697;1309;22259;-77
2022/12/19 04:33:33;;;;;;;17.60;6.60;;;;;;;;;;106906;1307;22080;-76
2022/12/19 04:36:01;;;;;;;17.20;5.90;;;;;;;;;;106720;1308;22137;-76
2022/12/19 04:38:28;;;;;;;18.60;6.40;;;;;;;;;;106790;1293;21986;-77
2022/12/19 04:40:56;;;;;;;16.90;5.20;;;;;;;;;;106944;1296;22811;-76
2022/12/19 04:43:22;;;;;;;15.30;6.60;;;;;;;;;;106662;1302;22794;-76
2022/12/19 04:45:50;;;;;;;20.60;7.00;;;;;;;;;;106602;1309;22139;-77
2022/12/19 04:48:17;;;;;;;18.40;6.80;;;;;;;;;;106834;1302;21828;-76
2022/12/19 04:50:45;;;;;;;20.00;6.40;;;;;;;;;;106895;1307;22117;-76
2022/12/19 04:53:11;;;;;;;20.50;7.50;;;;;;;;;;106682;1307;22079;-77
2022/12/19 04:55:40;;;;;;;16.40;6.00;;;;;;;;;;106730;1307;22727;-77
2022/12/19 04:58:08;;;;;;;18.70;7.20;;;;;;;;;;106647;1309;22080;-76
2022/12/19 05:00:37;;;;;;;22.80;7.90;;;;;;;;;;106736;1304;22107;-77
2022/12/19 05:03:06;;;;;;;20.90;7.30;;;;;;;;;;106748;1304;22117;-77
2022/12/19 05:05:35;;;;;;;22.20;7.90;;;;;;;;;;106663;1309;22682;-76
2022/12/19 05:08:04;;;;;;;21.00;7.40;;;;;;;;;;106645;1309;22102;-75
2022/12/19 05:10:33;;;;;;;20.70;7.70;;;;;;;;;;106694;1310;22074;-77
2022/12/19 05:13:03;;;;;;;24.10;7.80;;;;;;;;;;106689;1310;21893;-76
2022/12/19 05:15:32;;;;;;;21.10;7.70;;;;;;;;;;106628;1310;22650;-76
2022/12/19 05:18:01;;;;;;;20.40;8.40;;;;;;;;;;105353;1309;1769576;-77
2022/12/19 05:20:30;;;;;;;19.50;7.20;;;;;;;;;;106653;1309;22740;-77
2022/12/19 05:22:59;;;;;;;22.00;7.80;;;;;;;;;;106654;1309;22081;-77
2022/12/19 05:25:28;;;;;;;23.60;8.60;;;;;;;;;;106617;1304;22049;-78
2022/12/19 05:27:57;;;;;;;21.10;8.20;;;;;;;;;;106651;1304;22057;-75
2022/12/19 05:30:26;;;;;;;23.50;8.20;;;;;;;;;;106855;1309;21980;-75
2022/12/19 05:32:55;;;;;;;23.00;8.40;;;;;;;;;;106674;1310;22108;-76
2022/12/19 05:35:23;;;;;;;21.40;8.60;;;;;;;;;;106708;1310;22080;-76
2022/12/19 05:37:53;;;;;;;23.30;8.80;;;;;;;;;;106659;1309;22093;-78
2022/12/19 05:40:22;;;;;;;22.90;8.50;;;;;;;;;;106635;1309;22102;-76
2022/12/19 05:42:51;;;;;;;24.30;9.20;;;;;;;;;;106640;1309;22817;-76
2022/12/19 05:45:20;;;;;;;23.20;8.60;;;;;;;;;;106592;1309;22125;-78
2022/12/19 05:47:50;;;;;;;24.40;9.30;;;;;;;;;;106498;1309;22773;-78
2022/12/19 05:50:19;;;;;;;22.10;8.40;;;;;;;;;;106693;1307;22093;-76
2022/12/19 05:52:52;;;;;;;23.30;9.00;;;;;;;;;;106850;1307;22285;-78
2022/12/19 05:55:21;;;;;;;31.10;11.80;;;;;;;;;;106607;1304;22093;-77
2022/12/19 06:04:42;;;;;;;23.80;9.30;;;;;;;;;;100370;1342;544853;-83
2022/12/19 06:07:09;;;;;;;24.80;9.20;;;;;;;;;;103266;1310;24347;-79
2022/12/19 06:09:35;;;;;;;23.90;8.80;;;;;;;;;;103225;1310;22485;-80
2022/12/19 06:12:02;;;;;;;22.10;8.10;;;;;;;;;;103232;1295;24391;-82
2022/12/19 06:14:29;;;;;;;27.10;9.10;;;;;;;;;;103157;1295;25407;-79
2022/12/19 06:16:55;;;;;;;20.80;8.10;;;;;;;;;;103042;1312;22475;-79
2022/12/19 06:19:22;;;;;;;28.00;10.00;;;;;;;;;;102179;1291;1464244;-78
2022/12/19 06:21:49;;;;;;;26.00;9.60;;;;;;;;;;103493;1292;22583;-79
2022/12/19 06:24:16;;;;;;;24.50;9.10;;;;;;;;;;103348;1307;24240;-79
2022/12/19 06:26:44;;;;;;;26.30;9.90;;;;;;;;;;103366;1306;24237;-80
2022/12/19 06:29:10;;;;;;;25.00;9.70;;;;;;;;;;103303;1307;24262;-83
2022/12/19 06:31:37;;;;;;;27.30;10.40;;;;;;;;;;103197;1307;24067;-77
2022/12/19 06:34:04;;;;;;;28.50;10.00;;;;;;;;;;103493;1307;25327;-80
2022/12/19 06:36:31;;;;;;;24.80;9.60;;;;;;;;;;103076;1298;22711;-84
2022/12/19 06:38:58;;;;;;;27.90;10.10;;;;;;;;;;103220;1281;22498;-77
2022/12/19 06:44:13;;;;;;;37.80;15.10;;;;;;;;;;103325;1284;22462;-81
2022/12/19 06:46:41;;;;;;;47.30;18.10;;;;;;;;;;103194;1284;24047;-76
2022/12/19 06:49:07;;;;;;;32.40;13.10;;;;;;;;;;103223;1310;22475;-79
2022/12/19 06:51:34;;;;;;;27.30;11.50;;;;;;;;;;102996;1310;22487;-83
2022/12/19 06:54:01;;;;;;;26.60;10.80;;;;;;;;;;103218;1307;22527;-81
2022/12/19 06:56:27;;;;;;;26.00;10.50;;;;;;;;;;103180;1309;25367;-79
2022/12/19 06:58:54;;;;;;;32.60;13.10;;;;;;;;;;103220;1309;24240;-83
2022/12/19 07:01:34;;;;;;;29.10;10.90;;;;;;;;;;103467;1302;22662;-77
2022/12/19 07:04:00;;;;;;;32.20;12.30;;;;;;;;;;102993;1310;22944;-78
2022/12/19 07:06:27;;;;;;;33.80;12.90;;;;;;;;;;103189;1310;24430;-81
2022/12/19 07:08:54;;;;;;;38.50;15.20;;;;;;;;;;103019;1310;22510;-83
2022/12/19 07:11:20;;;;;;;29.00;11.90;;;;;;;;;;103104;1310;22526;-84
2022/12/19 07:13:47;;;;;;;25.30;10.50;;;;;;;;;;103184;1310;22467;-80
2022/12/19 07:16:13;;;;;;;25.50;10.10;;;;;;;;;;103104;1310;22609;-77
2022/12/19 07:18:40;;;;;;;33.40;12.80;;;;;;;;;;103136;1310;22476;-82
2022/12/19 07:21:10;;;;;;;24.90;10.40;;;;;;;;;;102982;1309;24060;-80
2022/12/19 07:23:37;;;;;;;26.30;10.40;;;;;;;;;;103042;1309;22623;-80
2022/12/19 07:26:03;;;;;;;29.50;11.60;;;;;;;;;;103202;1303;24324;-81
2022/12/19 07:28:32;;;;;;;30.40;11.70;;;;;;;;;;103251;1301;24324;-83
2022/12/19 07:30:59;;;;;;;22.30;9.10;;;;;;;;;;103216;1310;25293;-79
2022/12/19 07:33:25;;;;;;;25.20;9.50;;;;;;;;;;103309;1310;25296;-81
2022/12/19 07:35:52;;;;;;;28.80;11.40;;;;;;;;;;103209;1310;26589;-77
2022/12/19 07:38:19;;;;;;;26.50;10.60;;;;;;;;;;103503;1280;24222;-79
2022/12/19 07:40:46;;;;;;;27.60;10.10;;;;;;;;;;103432;1307;22478;-82
2022/12/19 07:43:12;;;;;;;25.60;10.90;;;;;;;;;;103405;1306;25280;-82
2022/12/19 07:45:39;;;;;;;23.90;9.40;;;;;;;;;;103477;1306;22663;-78
2022/12/19 07:48:06;;;;;;;25.10;10.80;;;;;;;;;;103124;1306;25299;-79
2022/12/19 07:50:33;;;;;;;23.30;9.00;;;;;;;;;;103289;1306;22486;-85
2022/12/19 07:53:00;;;;;;;24.80;10.40;;;;;;;;;;103318;1306;24242;-80
2022/12/19 07:55:27;;;;;;;27.40;11.40;;;;;;;;;;103297;1300;22471;-80
2022/12/19 07:57:54;;;;;;;28.30;11.50;;;;;;;;;;103280;1307;22427;-79
2022/12/19 08:00:21;;;;;;;27.00;10.70;;;;;;;;;;103285;1307;25290;-81
2022/12/19 08:02:48;;;;;;;22.40;9.40;;;;;;;;;;103499;1306;25271;-79
2022/12/19 08:05:15;;;;;;;27.20;9.70;;;;;;;;;;103335;1307;22511;-82
2022/12/19 08:07:42;;;;;;;25.20;10.30;;;;;;;;;;103358;1304;25516;-83
2022/12/19 08:10:11;;;;;;;24.40;10.00;;;;;;;;;;103372;1300;25357;-79
2022/12/19 08:12:38;;;;;;;24.00;9.70;;;;;;;;;;103307;1308;22471;-85
2022/12/19 08:15:04;;;;;;;27.00;10.10;;;;;;;;;;103456;1308;25188;-83
2022/12/19 08:17:31;;;;;;;26.80;9.90;;;;;;;;;;103271;1309;22470;-81
2022/12/19 08:19:58;;;;;;;26.60;10.40;;;;;;;;;;103203;1304;22469;-78
2022/12/19 08:22:24;;;;;;;22.20;10.00;;;;;;;;;;103264;1308;22452;-80
2022/12/19 08:24:51;;;;;;;23.50;9.00;;;;;;;;;;103389;1308;22475;-80
2022/12/19 08:27:18;;;;;;;25.90;10.30;;;;;;;;;;103221;1304;22543;-83
2022/12/19 08:29:46;;;;;;;25.10;9.80;;;;;;;;;;103391;1309;22463;-84
2022/12/19 08:32:13;;;;;;;22.50;9.70;;;;;;;;;;103408;1300;25213;-76
2022/12/19 08:34:40;;;;;;;22.40;9.60;;;;;;;;;;103496;1307;24270;-77
2022/12/19 08:37:08;;;;;;;24.20;9.90;;;;;;;;;;103304;1303;22512;-77
2022/12/19 08:39:34;;;;;;;21.90;8.60;;;;;;;;;;103331;1308;22575;-82
2022/12/19 08:42:01;;;;;;;25.00;10.20;;;;;;;;;;103340;1304;24779;-76
2022/12/19 08:44:27;;;;;;;22.20;10.00;;;;;;;;;;103360;1307;22474;-77
2022/12/19 08:46:54;;;;;;;22.80;10.00;;;;;;;;;;103196;1307;22442;-82
2022/12/19 08:49:21;;;;;;;23.50;10.10;;;;;;;;;;103284;1308;24303;-82
2022/12/19 08:51:48;;;;;;;28.70;9.60;;;;;;;;;;103202;1307;22471;-77
2022/12/19 08:54:15;;;;;;;26.20;8.40;;;;;;;;;;103192;1301;23891;-80
2022/12/19 08:56:41;;;;;;;25.90;10.30;;;;;;;;;;103454;1308;23660;-75
2022/12/19 08:59:08;;;;;;;23.90;10.40;;;;;;;;;;103256;1309;25300;-78
2022/12/19 09:01:34;;;;;;;26.00;9.80;;;;;;;;;;103364;1309;24254;-80
2022/12/19 09:04:01;;;;;;;25.00;9.60;;;;;;;;;;103248;1309;24925;-82
2022/12/19 09:06:28;;;;;;;23.70;9.70;;;;;;;;;;103202;1309;22609;-78
2022/12/19 09:08:54;;;;;;;27.20;10.70;;;;;;;;;;103186;1307;22552;-82
2022/12/19 09:11:21;;;;;;;22.40;9.70;;;;;;;;;;103390;1307;22453;-82
2022/12/19 09:13:48;;;;;;;23.50;9.40;;;;;;;;;;103456;1307;25367;-77
2022/12/19 09:16:20;;;;;;;25.10;10.40;;;;;;;;;;103477;1306;22468;-77
2022/12/19 09:18:48;;;;;;;25.80;9.90;;;;;;;;;;103395;1292;22486;-79
2022/12/19 09:21:16;;;;;;;22.20;9.60;;;;;;;;;;103371;1307;24318;-82
2022/12/19 09:23:46;;;;;;;25.00;10.60;;;;;;;;;;103439;1307;25275;-75
2022/12/19 09:26:13;;;;;;;28.10;10.40;;;;;;;;;;103455;1305;22457;-78
2022/12/19 09:28:40;;;;;;;23.40;9.50;;;;;;;;;;103363;1299;22473;-77
2022/12/19 09:31:11;;;;;;;27.90;11.20;;;;;;;;;;103454;1307;22544;-75
2022/12/19 09:33:38;;;;;;;29.00;11.40;;;;;;;;;;103385;1308;24031;-76
2022/12/19 09:36:07;;;;;;;22.80;9.30;;;;;;;;;;103362;1301;24870;-83
2022/12/19 09:38:33;;;;;;;27.30;10.30;;;;;;;;;;103475;1306;22484;-82
2022/12/19 09:41:00;;;;;;;25.10;10.80;;;;;;;;;;103457;1301;22509;-79
2022/12/19 09:43:33;;;;;;;24.00;9.80;;;;;;;;;;103438;1308;25616;-79
2022/12/19 09:46:06;;;;;;;25.90;10.70;;;;;;;;;;103404;1299;25298;-81
2022/12/19 09:48:33;;;;;;;29.20;10.80;;;;;;;;;;103453;1307;26477;-79
2022/12/19 09:51:11;;;;;;;25.50;11.20;;;;;;;;;;103283;1309;22476;-79
2022/12/19 09:53:43;;;;;;;31.00;11.20;;;;;;;;;;103483;1307;22489;-77
2022/12/19 09:56:13;;;;;;;24.50;11.10;;;;;;;;;;103471;1307;24317;-77
2022/12/19 09:58:42;;;;;;;25.20;10.80;;;;;;;;;;103243;1306;22595;-78
2022/12/19 10:01:24;;;;;;;27.00;11.30;;;;;;;;;;103399;1300;22427;-80
2022/12/19 10:03:59;;;;;;;26.90;11.10;;;;;;;;;;103447;1306;24250;-80
2022/12/19 10:06:26;;;;;;;25.80;11.30;;;;;;;;;;103444;1306;22508;-81
2022/12/19 10:08:52;;;;;;;30.20;11.30;;;;;;;;;;103393;1308;22484;-78
2022/12/19 10:11:46;;;;;;;26.40;10.70;;;;;;;;;;103334;1308;24334;-83
2022/12/19 10:14:31;;;;;;;25.50;10.10;;;;;;;;;;103331;1309;24527;-79
2022/12/19 10:17:08;;;;;;;26.50;10.60;;;;;;;;;;103383;1307;24328;-81
2022/12/19 10:19:53;;;;;;;25.70;10.50;;;;;;;;;;103361;1307;25286;-81
2022/12/19 10:22:20;;;;;;;28.10;11.30;;;;;;;;;;103414;1309;26481;-81
2022/12/19 10:25:01;;;;;;;27.10;11.50;;;;;;;;;;103498;1306;22476;-80
2022/12/19 10:27:41;;;;;;;27.10;11.50;;;;;;;;;;103464;1307;25257;-76
2022/12/19 10:30:20;;;;;;;24.80;9.90;;;;;;;;;;103507;1306;22479;-78
2022/12/19 10:32:53;;;;;;;28.00;11.20;;;;;;;;;;103415;1307;22491;-79
2022/12/19 10:35:21;;;;;;;29.00;11.50;;;;;;;;;;103435;1307;22468;-79
2022/12/19 10:38:18;;;;;;;24.90;11.30;;;;;;;;;;103391;1307;22466;-78
2022/12/19 10:40:46;;;;;;;24.00;10.90;;;;;;;;;;103382;1305;22470;-82
2022/12/19 10:43:13;;;;;;;27.00;11.30;;;;;;;;;;103450;1306;24237;-81
2022/12/19 10:45:44;;;;;;;28.70;11.00;;;;;;;;;;103369;1303;22744;-82
2022/12/19 10:48:14;;;;;;;24.30;10.50;;;;;;;;;;103474;1301;22712;-80
2022/12/19 10:50:41;;;;;;;23.40;10.60;;;;;;;;;;103454;1306;22491;-81
2022/12/19 10:53:12;;;;;;;23.50;9.80;;;;;;;;;;103354;1307;25180;-81
2022/12/19 10:55:49;;;;;;;27.20;11.00;;;;;;;;;;103479;1307;25203;-77
2022/12/19 10:58:17;;;;;;;28.10;12.00;;;;;;;;;;103290;1308;22474;-77
2022/12/19 11:00:45;;;;;;;28.40;11.90;;;;;;;;;;103489;1306;22839;-85
2022/12/19 11:03:13;;;;;;;28.90;13.00;;;;;;;;;;103161;1301;22471;-77
2022/12/19 11:05:48;;;;;;;28.20;13.00;;;;;;;;;;103147;1306;25325;-78
2022/12/19 11:08:20;;;;;;;30.50;12.80;;;;;;;;;;103450;1306;25371;-81
2022/12/19 11:10:49;;;;;;;28.40;12.40;;;;;;;;;;103113;1306;24240;-85
2022/12/19 11:13:21;;;;;;;26.20;11.90;;;;;;;;;;103467;1306;25399;-79
2022/12/19 11:15:49;;;;;;;29.20;12.40;;;;;;;;;;103369;1306;22479;-81
2022/12/19 11:18:16;;;;;;;30.10;12.60;;;;;;;;;;103503;1306;24311;-82
2022/12/19 11:20:58;;;;;;;27.20;11.80;;;;;;;;;;103338;1306;23335;-78
2022/12/19 11:23:25;;;;;;;30.50;12.90;;;;;;;;;;103505;1300;25322;-80
2022/12/19 11:25:57;;;;;;;23.60;10.00;;;;;;;;;;103461;1306;22682;-82
2022/12/19 11:28:26;;;;;;;27.40;12.10;;;;;;;;;;103427;1306;25468;-79
2022/12/19 11:30:54;;;;;;;22.90;10.10;;;;;;;;;;103386;1306;22579;-83
2022/12/19 11:33:21;;;;;;;42.10;16.30;;;;;;;;;;103507;1306;22477;-82
2022/12/19 11:35:49;;;;;;;26.30;11.60;;;;;;;;;;103467;1306;22482;-82
2022/12/19 11:38:40;;;;;;;32.30;12.50;;;;;;;;;;103500;1306;22479;-79
2022/12/19 11:41:12;;;;;;;28.80;12.10;;;;;;;;;;103397;1306;22466;-81
2022/12/19 11:43:43;;;;;;;26.00;10.90;;;;;;;;;;103384;1308;24224;-81
2022/12/19 11:46:35;;;;;;;30.50;14.40;;;;;;;;;;103289;1306;25336;-78
2022/12/19 11:49:07;;;;;;;25.90;12.50;;;;;;;;;;103385;1300;24413;-84
2022/12/19 11:51:43;;;;;;;28.50;12.10;;;;;;;;;;103542;1306;24385;-79
2022/12/19 11:54:16;;;;;;;26.90;12.20;;;;;;;;;;103521;1306;22513;-76
2022/12/19 11:56:42;;;;;;;31.50;13.20;;;;;;;;;;103424;1301;23081;-78
2022/12/19 11:59:16;;;;;;;28.50;12.20;;;;;;;;;;103142;1304;22489;-79
2022/12/19 12:01:54;;;;;;;25.60;11.30;;;;;;;;;;103387;1307;25266;-81
2022/12/19 12:04:40;;;;;;;29.40;12.70;;;;;;;;;;103345;1300;22474;-81
2022/12/19 12:07:07;;;;;;;30.10;12.00;;;;;;;;;;103466;1300;25327;-81
2022/12/19 12:09:42;;;;;;;28.10;11.50;;;;;;;;;;103468;1307;25710;-78
2022/12/19 12:12:11;;;;;;;28.20;12.70;;;;;;;;;;103184;1309;22754;-78
2022/12/19 12:14:57;;;;;;;28.60;12.80;;;;;;;;;;103405;1307;23885;-79
2022/12/19 12:17:46;;;;;;;31.00;13.40;;;;;;;;;;103501;1306;22489;-82
2022/12/19 12:20:13;;;;;;;30.30;13.70;;;;;;;;;;103367;1307;25343;-79
2022/12/19 12:22:39;;;;;;;30.40;14.20;;;;;;;;;;103429;1307;22468;-80
2022/12/19 12:25:15;;;;;;;33.30;14.00;;;;;;;;;;103287;1306;24300;-85
2022/12/19 12:27:45;;;;;;;32.60;13.70;;;;;;;;;;103390;1306;25414;-81
2022/12/19 12:30:20;;;;;;;30.50;12.70;;;;;;;;;;103440;1307;22537;-80
2022/12/19 12:32:46;;;;;;;29.00;13.20;;;;;;;;;;103513;1307;22490;-84
2022/12/19 12:35:18;;;;;;;30.70;13.60;;;;;;;;;;103422;1309;22454;-82
2022/12/19 12:37:48;;;;;;;28.20;12.70;;;;;;;;;;103458;1307;25268;-83
2022/12/19 12:40:24;;;;;;;31.10;14.00;;;;;;;;;;103518;1307;22547;-77
2022/12/19 12:43:02;;;;;;;33.10;14.80;;;;;;;;;;103382;1307;23365;-79
2022/12/19 12:45:35;;;;;;;32.20;13.50;;;;;;;;;;103500;1309;22472;-79
2022/12/19 12:48:01;;;;;;;31.50;13.70;;;;;;;;;;103416;1309;25325;-82
2022/12/19 12:50:29;;;;;;;36.00;15.20;;;;;;;;;;103478;1307;25381;-80
2022/12/19 12:52:58;;;;;;;32.60;14.30;;;;;;;;;;103366;1309;23864;-81
2022/12/19 12:55:36;;;;;;;32.20;14.80;;;;;;;;;;103588;1306;25387;-80
2022/12/19 12:58:03;;;;;;;30.50;13.50;;;;;;;;;;103312;1284;25763;-77
2022/12/19 13:00:30;;;;;;;30.30;13.40;;;;;;;;;;103344;1291;22516;-77
2022/12/19 13:03:17;;;;;;;32.00;13.40;;;;;;;;;;103543;1284;25644;-79
2022/12/19 13:05:44;;;;;;;32.60;13.60;;;;;;;;;;103285;1285;23842;-80
2022/12/19 13:08:31;;;;;;;35.30;14.80;;;;;;;;;;103320;1309;24241;-80
2022/12/19 13:12:58;;;;;;;37.60;15.60;;;;;;;;;;103521;1285;22469;-78
2022/12/19 13:13:58;;;;;;;36.70;15.70;;;;;;;;;;103411;1284;22470;-76
2022/12/19 13:16:43;;;;;;;43.40;16.60;;;;;;;;;;103386;1285;22489;-85
2022/12/19 13:19:21;;;;;;;40.20;16.80;;;;;;;;;;103434;1290;24289;-82
2022/12/19 13:22:04;;;;;;;36.70;15.40;;;;;;;;;;103601;1282;25433;-76
2022/12/19 13:24:42;;;;;;;33.80;14.40;;;;;;;;;;103336;1306;22607;-82
2022/12/19 13:27:17;;;;;;;34.50;14.10;;;;;;;;;;103503;1306;25152;-78
2022/12/19 13:29:59;;;;;;;34.40;14.10;;;;;;;;;;103489;1306;22498;-83
2022/12/19 13:32:31;;;;;;;38.50;15.80;;;;;;;;;;103593;1306;22479;-84
2022/12/19 13:34:59;;;;;;;37.30;15.20;;;;;;;;;;103240;1285;22610;-80
2022/12/19 13:37:31;;;;;;;36.30;14.70;;;;;;;;;;103293;1293;25300;-80
2022/12/19 13:40:00;;;;;;;32.10;13.60;;;;;;;;;;103288;1283;22485;-79
2022/12/19 13:45:39;;;;;;;36.80;14.40;;;;;;;;;;103341;1292;22480;-80
2022/12/19 13:48:12;;;;;;;34.70;15.00;;;;;;;;;;103583;1286;22473;-82
2022/12/19 13:50:40;;;;;;;36.50;14.90;;;;;;;;;;103457;1284;22463;-77
2022/12/19 13:53:13;;;;;;;37.20;15.70;;;;;;;;;;103418;1293;25413;-76
2022/12/19 13:55:40;;;;;;;37.70;16.70;;;;;;;;;;103194;1278;22465;-78
2022/12/19 13:58:19;;;;;;;38.30;15.80;;;;;;;;;;103179;1288;23993;-80
2022/12/19 14:00:47;;;;;;;35.50;14.60;;;;;;;;;;103195;1285;22470;-79
2022/12/19 14:03:17;;;;;;;38.00;15.70;;;;;;;;;;103183;1288;22471;-75
2022/12/19 14:05:44;;;;;;;39.50;15.40;;;;;;;;;;103096;1284;22479;-77
2022/12/19 14:08:15;;;;;;;35.90;15.40;;;;;;;;;;103679;1282;22470;-79
2022/12/19 14:10:44;;;;;;;33.10;13.50;;;;;;;;;;103040;1307;25354;-79
2022/12/19 14:15:59;;;;;;;42.20;17.00;;;;;;;;;;103507;1291;22464;-78
2022/12/19 14:18:27;;;;;;;38.30;15.90;;;;;;;;;;103549;1299;23894;-79
2022/12/19 14:21:06;;;;;;;35.40;13.70;;;;;;;;;;103213;1294;24266;-77
2022/12/19 14:23:33;;;;;;;35.20;14.40;;;;;;;;;;103480;1290;22550;-78
2022/12/19 14:26:01;;;;;;;34.10;14.40;;;;;;;;;;103263;1285;24320;-77
2022/12/19 14:28:39;;;;;;;36.90;14.80;;;;;;;;;;103368;1294;22490;-81
2022/12/19 14:31:09;;;;;;;37.10;15.90;;;;;;;;;;103584;1306;22472;-80
2022/12/19 14:33:47;;;;;;;39.10;16.00;;;;;;;;;;103396;1284;22672;-77
2022/12/19 14:36:26;;;;;;;39.30;16.30;;;;;;;;;;103357;1309;22492;-80
2022/12/19 14:38:54;;;;;;;37.30;15.30;;;;;;;;;;103386;1290;24412;-77
2022/12/19 14:44:14;;;;;;;34.70;14.10;;;;;;;;;;103486;1306;22586;-78
2022/12/19 14:46:41;;;;;;;34.30;14.10;;;;;;;;;;103113;1310;24434;-81
2022/12/19 14:49:40;;;;;;;39.50;15.20;;;;;;;;;;103322;1295;25483;-78